TALO2: Illinois River, Tahlequah, OK

                                SHEF ID:       TALO2     Illinois River near Tahlequah, O
STATION TYPE:
Regulating: Stage = 11.00, Flow = 10168

PRECIP STAGE STAGE(2) RIV-FLOW BAT-LOAD
in ft ft cfs volt
Ccp-Rev Ccp-Rev Ccp-Rev Ccp-Rev Ccp-Rev
(America/Chicago)
05/02 00:00 ---- 7.29 ---- 2657 12.17
05/02 01:00 ---- 7.26 ---- 2607 12.09
05/02 02:00 ---- 7.25 ---- 2590 12.17
05/02 03:00 ---- 7.23 ---- 2556 12.09
05/02 04:00 ---- 7.22 ---- 2540 12.01
05/02 05:00 ---- 7.20 ---- 2507 12.01
05/02 06:00 ---- 7.19 ---- 2490 12.01
05/02 07:00 ---- 7.16 ---- 2441 12.01
05/02 08:00 ---- 7.17 ---- 2457 12.01
05/02 09:00 ---- 7.14 ---- 2408 12.33
05/02 10:00 ---- 7.13 ---- 2392 13.05
05/02 11:00 ---- 7.11 ---- 2360 12.81
05/02 12:00 ---- 7.10 ---- 2344 12.97
05/02 13:00 ---- 7.07 ---- 2297 12.73
05/02 14:00 ---- 7.05 ---- 2265 12.89
05/02 15:00 ---- 7.03 ---- 2234 12.97
05/02 16:00 ---- 7.02 ---- 2219 12.81
05/02 17:00 ---- 7.01 ---- 2203 12.65
05/02 18:00 ---- 7.00 ---- 2188 12.57
05/02 19:00 ---- 6.98 ---- 2157 12.25
05/02 20:00 ---- 6.97 ---- 2141 12.49
05/02 21:00 ---- 6.95 ---- 2111 12.33
05/02 22:00 ---- 6.95 ---- 2111 12.17
05/02 23:00 ---- ---- ---- ---- ----
Data processed at Sun 03May2026 04:33 GMT

NOTICE: If you are parsing this page

Please convert to using our Data API. Starting early 2026 we will be migrating to: https://water.usace.army.mil with modern pages rendered in JavaScript. When this migration completes you will no longer be able to scrape this page! CWMSDataAPI (CDA)

Timeseries IDs (TSIDs)

TSIDs used from left to right in the data table
TAHL.Precip-Inc.Total.1Hour.0.Ccp-Rev
TAHL.Stage.Inst.1Hour.0.Ccp-Rev
TAHL.Stage-Alt.Inst.1Hour.0.Ccp-Rev
TAHL.Flow.Inst.1Hour.0.Ccp-Rev
TAHL.Volt-Battery Load.Inst.1Hour.0.Ccp-Rev

                            

All information presented herein is the property of the government of the United States of America and may be revised or deleted at any time without prior notice. Dissemination of this information without the expressed written consent of the Public Affairs Office, Tulsa District U.S. Army Corps of Engineers is strictly prohibited. These data are gathered electronically and, as presented, have NOT undergone any form of quality control. These data are NOT guaranteed to be valid or correct.